createdAt,value
2022-12-18T00:00:30.495Z,0.57
2022-12-18T00:03:37.105Z,0.19
2022-12-18T00:06:39.636Z,0.57
2022-12-18T00:09:42.317Z,0.37
2022-12-18T00:12:44.572Z,0.53
2022-12-18T00:15:47.418Z,0.50
2022-12-18T00:18:52.733Z,0.45
2022-12-18T00:21:55.466Z,0.43
2022-12-18T00:24:57.951Z,0.22
2022-12-18T00:28:00.675Z,0.41
2022-12-18T00:31:05.520Z,0.43
2022-12-18T00:34:10.366Z,0.31
2022-12-18T00:37:19.886Z,0.34
2022-12-18T00:40:26.547Z,0.30
2022-12-18T00:43:29.854Z,0.22
2022-12-18T00:46:32.733Z,0.31
2022-12-18T00:49:35.111Z,0.33
2022-12-18T00:52:37.797Z,0.23
2022-12-18T00:55:40.894Z,0.19
2022-12-18T00:58:43.430Z,0.20
2022-12-18T01:01:47.042Z,0.39
2022-12-18T01:04:49.803Z,0.26
2022-12-18T01:07:54.522Z,0.13
2022-12-18T01:10:57.066Z,0.47
2022-12-18T01:14:00.869Z,0.48
2022-12-18T01:17:04.684Z,0.47
2022-12-18T01:20:09.870Z,0.24
2022-12-18T01:23:12.417Z,0.35
2022-12-18T01:26:16.305Z,0.44
2022-12-18T01:29:19.295Z,0.43
2022-12-18T01:32:23.067Z,0.35
2022-12-18T01:35:25.855Z,-0.24
2022-12-18T01:38:30.423Z,0.30
2022-12-18T01:41:53.899Z,0.16
2022-12-18T01:45:14.598Z,0.25
2022-12-18T01:48:18.710Z,0.24
2022-12-18T01:51:21.661Z,0.11
2022-12-18T01:54:24.298Z,0.20
2022-12-18T01:57:27.916Z,0.17
2022-12-18T02:00:30.696Z,0.09
2022-12-18T02:03:33.249Z,0.23
2022-12-18T02:06:42.349Z,-0.21
2022-12-18T02:10:14.264Z,-0.02
2022-12-18T02:13:19.304Z,-0.04
2022-12-18T02:16:45.827Z,0.13
2022-12-18T02:20:28.938Z,0.10
2022-12-18T02:23:42.272Z,-0.09
2022-12-18T02:26:51.242Z,0.06
2022-12-18T02:29:59.043Z,0.03
2022-12-18T02:33:07.403Z,-0.14
2022-12-18T02:36:11.944Z,-0.07
2022-12-18T02:39:16.858Z,0.01
2022-12-18T02:42:20.714Z,0.01
2022-12-18T02:45:23.783Z,0.14
2022-12-18T02:48:32.552Z,0.17
2022-12-18T02:51:49.346Z,-0.03
2022-12-18T02:55:01.514Z,0.10
2022-12-18T02:58:14.098Z,0.19
2022-12-18T03:01:38.087Z,0.19
2022-12-18T03:05:10.120Z,0.07
2022-12-18T03:08:21.070Z,-0.01
2022-12-18T03:11:48.309Z,0.07
2022-12-18T03:15:05.559Z,0.01
2022-12-18T03:18:26.354Z,-0.25
2022-12-18T03:21:50.742Z,-0.20
2022-12-18T03:24:57.244Z,-0.05
2022-12-18T03:28:04.166Z,-0.05
2022-12-18T03:31:10.848Z,-0.20
2022-12-18T03:34:27.468Z,-0.06
2022-12-18T03:37:31.486Z,0.01
2022-12-18T03:40:52.163Z,-0.12
2022-12-18T03:43:54.874Z,0.03
2022-12-18T03:47:14.348Z,-0.04
2022-12-18T03:50:38.983Z,-0.13
2022-12-18T03:53:51.003Z,-0.24
2022-12-18T03:57:02.404Z,-0.09
2022-12-18T04:00:12.000Z,-0.25
2022-12-18T04:03:22.582Z,-0.08
2022-12-18T04:06:30.466Z,-0.06
2022-12-18T04:09:35.243Z,-0.19
2022-12-18T04:12:38.825Z,-0.23
2022-12-18T04:15:41.997Z,-0.29
2022-12-18T04:18:45.136Z,-0.23
2022-12-18T04:21:48.956Z,-0.19
2022-12-18T04:24:51.683Z,-0.20
2022-12-18T04:27:55.346Z,-0.41
2022-12-18T04:30:58.530Z,-0.46
2022-12-18T04:34:00.923Z,-0.25
2022-12-18T04:37:03.994Z,-0.21
2022-12-18T04:40:07.358Z,-0.39
2022-12-18T04:43:12.529Z,-0.22
2022-12-18T04:46:15.755Z,-0.15
2022-12-18T04:49:18.556Z,-0.42
2022-12-18T04:52:20.794Z,-0.22
2022-12-18T04:55:23.334Z,-0.18
2022-12-18T04:58:25.603Z,-0.33
2022-12-18T05:01:34.297Z,-0.16
2022-12-18T05:04:37.127Z,-0.15
2022-12-18T05:07:40.143Z,-0.18
2022-12-18T05:10:43.706Z,-0.40
2022-12-18T05:13:46.802Z,-0.17
2022-12-18T05:16:49.062Z,-0.16
2022-12-18T05:19:51.663Z,-0.48
2022-12-18T05:22:54.409Z,-0.29
2022-12-18T05:25:59.794Z,-0.32
2022-12-18T05:29:02.184Z,-0.33
2022-12-18T05:32:05.008Z,-0.38
2022-12-18T05:35:26.035Z,-0.57
2022-12-18T05:38:30.040Z,-0.38
2022-12-18T05:41:32.297Z,-0.62
2022-12-18T05:44:35.045Z,-0.58
2022-12-18T05:47:37.425Z,-0.39
2022-12-18T05:50:42.077Z,-0.59
2022-12-18T05:53:44.535Z,-0.58
2022-12-18T05:56:48.883Z,-0.65
2022-12-18T05:59:51.503Z,-0.43
2022-12-18T06:02:54.151Z,-0.49
2022-12-18T06:05:56.799Z,-0.69
2022-12-18T06:08:59.125Z,-0.61
2022-12-18T06:12:01.630Z,-0.56
2022-12-18T06:15:04.540Z,-0.48
2022-12-18T06:18:07.102Z,-0.66
2022-12-18T06:21:09.385Z,-0.52
2022-12-18T06:24:11.935Z,-0.47
2022-12-18T06:27:14.541Z,-0.48
2022-12-18T06:30:17.207Z,-0.70
2022-12-18T06:33:19.639Z,-0.63
2022-12-18T06:36:22.346Z,-0.42
2022-12-18T06:39:25.130Z,-0.68
2022-12-18T06:42:27.809Z,-0.72
2022-12-18T06:45:30.099Z,-0.67
2022-12-18T06:48:33.387Z,-0.65
2022-12-18T06:51:35.683Z,-0.53
2022-12-18T06:54:38.272Z,-0.44
2022-12-18T06:57:40.533Z,-0.38
2022-12-18T07:00:43.099Z,-0.37
2022-12-18T07:03:46.547Z,-0.39
2022-12-18T07:06:49.063Z,-0.54
2022-12-18T07:09:51.950Z,-0.56
2022-12-18T07:12:54.531Z,-0.65
2022-12-18T07:15:56.849Z,-0.60
2022-12-18T07:18:59.367Z,-0.42
2022-12-18T07:22:02.338Z,-0.51
2022-12-18T07:25:06.184Z,-0.29
2022-12-18T07:28:12.793Z,-0.23
2022-12-18T07:31:21.936Z,-0.44
2022-12-18T07:34:24.498Z,-0.19
2022-12-18T07:37:27.077Z,-0.16
2022-12-18T07:40:29.312Z,-0.14
2022-12-18T07:43:32.074Z,-0.10
2022-12-18T07:46:34.328Z,-0.19
2022-12-18T07:49:37.495Z,-0.15
2022-12-18T07:52:39.773Z,-0.16
2022-12-18T07:56:11.188Z,0.12
2022-12-18T07:59:06.162Z,0.18
2022-12-18T08:02:09.198Z,0.01
2022-12-18T08:05:11.961Z,0.30
2022-12-18T08:08:14.194Z,0.48
2022-12-18T08:11:16.788Z,0.59
2022-12-18T08:14:19.050Z,0.68
2022-12-18T08:17:22.516Z,0.69
2022-12-18T08:20:24.913Z,1.05
2022-12-18T08:23:28.802Z,1.26
2022-12-18T08:26:32.376Z,1.37
2022-12-18T08:29:34.980Z,1.71
2022-12-18T08:32:37.503Z,2.11
2022-12-18T08:35:45.588Z,2.54
2022-12-18T08:38:48.608Z,2.74
2022-12-18T08:42:11.537Z,3.45
2022-12-18T08:45:13.890Z,3.58
2022-12-18T08:48:21.862Z,3.97
2022-12-18T08:51:24.817Z,4.42
2022-12-18T08:54:27.550Z,4.47
2022-12-18T08:57:29.843Z,4.72
2022-12-18T09:00:32.365Z,4.81
2022-12-18T09:03:34.705Z,5.09
2022-12-18T09:06:37.413Z,5.51
2022-12-18T09:09:40.493Z,5.59
2022-12-18T09:12:43.259Z,6.00
2022-12-18T09:15:47.986Z,6.10
2022-12-18T09:18:51.994Z,6.82
2022-12-18T09:21:54.202Z,7.06
2022-12-18T09:24:56.719Z,7.16
2022-12-18T09:27:58.967Z,7.48
2022-12-18T09:31:08.637Z,7.63
2022-12-18T09:34:11.156Z,8.03
2022-12-18T09:37:13.713Z,8.64
2022-12-18T09:40:19.055Z,8.95
2022-12-18T09:43:29.070Z,8.90
2022-12-18T09:46:37.261Z,9.29
2022-12-18T09:49:49.659Z,9.42
2022-12-18T09:52:56.974Z,9.30
2022-12-18T09:56:02.680Z,9.01
2022-12-18T09:59:05.989Z,9.25
2022-12-18T10:02:22.358Z,8.68
2022-12-18T10:05:40.632Z,8.83
2022-12-18T10:09:12.658Z,9.01
2022-12-18T10:12:26.135Z,9.34
2022-12-18T10:15:37.449Z,10.19
2022-12-18T10:18:57.192Z,10.77
2022-12-18T10:22:37.462Z,10.97
2022-12-18T10:26:06.194Z,11.41
2022-12-18T10:29:13.635Z,11.23
2022-12-18T10:32:33.951Z,11.63
2022-12-18T10:35:37.310Z,11.57
2022-12-18T10:38:40.385Z,11.73
2022-12-18T10:41:42.900Z,12.02
2022-12-18T10:44:45.787Z,12.03
2022-12-18T10:47:50.079Z,11.89
2022-12-18T10:54:26.011Z,12.21
2022-12-18T10:57:37.000Z,12.65
2022-12-18T11:00:39.454Z,12.58
2022-12-18T11:03:47.905Z,13.28
2022-12-18T11:07:00.819Z,13.21
2022-12-18T11:10:03.771Z,12.94
2022-12-18T11:13:21.634Z,12.56
2022-12-18T11:16:25.357Z,12.67
2022-12-18T11:19:40.792Z,12.67
2022-12-18T11:22:43.782Z,13.16
2022-12-18T11:25:56.069Z,13.31
2022-12-18T11:29:18.338Z,13.41
2022-12-18T11:32:31.206Z,13.33
2022-12-18T11:35:39.411Z,12.81
2022-12-18T11:38:45.295Z,12.24
2022-12-18T11:42:17.442Z,11.46
2022-12-18T11:45:29.856Z,10.66
2022-12-18T11:48:41.595Z,10.24
2022-12-18T11:51:59.519Z,9.87
2022-12-18T11:55:12.320Z,9.80
2022-12-18T11:58:33.360Z,10.00
2022-12-18T12:01:48.245Z,10.13
2022-12-18T12:05:20.044Z,10.29
2022-12-18T12:08:27.946Z,10.49
2022-12-18T12:11:54.621Z,10.86
2022-12-18T12:15:20.532Z,11.02
2022-12-18T12:18:37.719Z,10.90
2022-12-18T12:22:11.881Z,11.01
2022-12-18T12:25:54.901Z,11.16
2022-12-18T12:29:22.935Z,11.27
2022-12-18T12:32:47.920Z,11.29
2022-12-18T12:36:26.056Z,11.05
2022-12-18T12:39:37.556Z,11.00
2022-12-18T12:43:05.213Z,10.76
2022-12-18T12:46:12.716Z,10.55
2022-12-18T12:49:23.874Z,9.67
2022-12-18T12:52:41.445Z,9.24
2022-12-18T12:55:45.880Z,8.62
2022-12-18T13:07:29.595Z,6.92
2022-12-18T13:10:39.444Z,6.64
2022-12-18T13:13:55.133Z,6.32
2022-12-18T13:17:18.114Z,6.03
2022-12-18T13:20:20.642Z,5.80
2022-12-18T13:23:25.840Z,5.59
2022-12-18T13:26:49.474Z,5.41
2022-12-18T13:29:52.845Z,5.19
2022-12-18T13:33:27.997Z,5.04
2022-12-18T13:36:33.993Z,4.88
2022-12-18T13:39:36.687Z,4.69
2022-12-18T13:42:59.101Z,4.46
2022-12-18T13:46:18.827Z,4.52
2022-12-18T13:49:21.270Z,4.46
2022-12-18T13:52:27.595Z,4.31
2022-12-18T13:55:30.413Z,4.11
2022-12-18T13:58:32.965Z,4.02
2022-12-18T14:01:35.899Z,4.09
2022-12-18T14:04:38.710Z,3.86
2022-12-18T14:07:42.978Z,3.93
2022-12-18T14:10:52.237Z,3.83
2022-12-18T14:13:54.549Z,3.68
2022-12-18T14:16:57.577Z,3.74
2022-12-18T14:20:01.217Z,3.62
2022-12-18T14:23:03.856Z,3.71
2022-12-18T14:26:28.969Z,3.53
2022-12-18T14:29:32.092Z,3.65
2022-12-18T14:32:34.463Z,3.38
2022-12-18T14:35:40.474Z,3.52
2022-12-18T14:38:42.832Z,3.33
2022-12-18T14:41:45.973Z,3.45
2022-12-18T14:45:12.916Z,3.27
2022-12-18T14:48:41.496Z,3.35
2022-12-18T14:51:50.031Z,3.33
2022-12-18T14:54:53.222Z,3.07
2022-12-18T14:57:57.402Z,3.01
2022-12-18T15:01:00.011Z,3.21
2022-12-18T15:04:04.669Z,3.16
2022-12-18T15:07:22.360Z,3.17
2022-12-18T15:10:27.048Z,3.10
2022-12-18T15:13:31.052Z,2.88
2022-12-18T15:16:34.288Z,3.04
2022-12-18T15:19:41.719Z,2.96
2022-12-18T15:22:44.012Z,2.87
2022-12-18T15:25:48.192Z,2.97
2022-12-18T15:28:52.959Z,2.87
2022-12-18T15:32:04.389Z,2.75
2022-12-18T15:35:20.714Z,2.67
2022-12-18T15:38:23.294Z,2.82
2022-12-18T15:41:26.266Z,2.83
2022-12-18T15:44:29.222Z,2.83
2022-12-18T15:47:31.651Z,2.62
2022-12-18T15:50:34.255Z,2.80
2022-12-18T15:53:36.493Z,2.49
2022-12-18T15:56:57.551Z,2.69
2022-12-18T16:00:01.204Z,2.50
2022-12-18T16:03:05.384Z,2.61
2022-12-18T16:06:10.269Z,2.43
2022-12-18T16:09:12.575Z,2.59
2022-12-18T16:12:21.933Z,2.38
2022-12-18T16:15:24.905Z,2.42
2022-12-18T16:18:27.829Z,2.48
2022-12-18T16:21:33.962Z,2.47
2022-12-18T16:24:37.311Z,2.46
2022-12-18T16:27:39.659Z,2.21
2022-12-18T16:30:42.991Z,2.37
2022-12-18T16:33:45.312Z,2.15
2022-12-18T16:36:47.969Z,2.15
2022-12-18T16:39:50.360Z,2.17
2022-12-18T16:42:52.896Z,2.29
2022-12-18T16:45:58.279Z,2.29
2022-12-18T16:49:01.173Z,2.28
2022-12-18T16:52:05.185Z,2.24
2022-12-18T16:55:08.134Z,2.17
2022-12-18T16:58:11.145Z,2.00
2022-12-18T17:01:13.727Z,2.13
2022-12-18T17:04:17.437Z,2.04
2022-12-18T17:07:19.911Z,2.01
2022-12-18T17:10:22.180Z,1.98
2022-12-18T17:13:27.597Z,1.92
2022-12-18T17:16:40.341Z,1.82
2022-12-18T17:19:44.856Z,1.91
2022-12-18T17:22:49.195Z,1.58
2022-12-18T17:25:56.960Z,1.65
2022-12-18T17:28:59.573Z,1.64
2022-12-18T17:32:02.326Z,1.75
2022-12-18T17:35:07.337Z,1.60
2022-12-18T17:38:10.920Z,1.58
2022-12-18T17:41:13.353Z,1.49
2022-12-18T17:44:17.768Z,1.51
2022-12-18T17:47:20.679Z,1.53
2022-12-18T17:50:23.310Z,1.50
2022-12-18T17:53:25.529Z,1.32
2022-12-18T17:56:28.167Z,1.32
2022-12-18T17:59:31.549Z,1.46
2022-12-18T18:02:34.531Z,1.27
2022-12-18T18:05:37.228Z,1.26
2022-12-18T18:08:39.511Z,1.42
2022-12-18T18:12:00.984Z,1.41
2022-12-18T18:15:06.018Z,1.37
2022-12-18T18:18:08.892Z,1.26
2022-12-18T18:21:13.553Z,1.07
2022-12-18T18:24:23.270Z,1.25
2022-12-18T18:27:25.660Z,1.08
2022-12-18T18:30:29.028Z,1.08
2022-12-18T18:33:31.845Z,1.26
2022-12-18T18:36:34.408Z,1.26
2022-12-18T18:39:37.196Z,0.90
2022-12-18T18:42:39.796Z,1.18
2022-12-18T18:45:42.125Z,1.23
2022-12-18T18:48:47.743Z,1.23
2022-12-18T18:51:50.968Z,1.05
2022-12-18T18:55:12.140Z,1.15
2022-12-18T18:58:15.415Z,1.20
2022-12-18T19:01:20.929Z,1.18
2022-12-18T19:04:23.401Z,1.08
2022-12-18T19:07:30.647Z,1.02
2022-12-18T19:10:33.415Z,1.16
2022-12-18T19:13:35.995Z,1.14
2022-12-18T19:16:38.802Z,1.13
2022-12-18T19:19:42.703Z,1.08
2022-12-18T19:22:54.760Z,0.89
2022-12-18T19:26:26.894Z,1.05
2022-12-18T19:29:27.646Z,1.09
2022-12-18T19:32:31.409Z,1.11
2022-12-18T19:35:34.410Z,1.10
2022-12-18T19:38:37.406Z,1.04
2022-12-18T19:41:42.228Z,0.83
2022-12-18T19:44:45.044Z,0.86
2022-12-18T19:47:48.307Z,1.02
2022-12-18T19:50:50.890Z,0.91
2022-12-18T19:53:58.445Z,1.04
2022-12-18T19:57:01.638Z,0.85
2022-12-18T20:00:04.562Z,0.87
2022-12-18T20:03:23.490Z,0.88
2022-12-18T20:06:51.665Z,0.93
2022-12-18T20:10:01.444Z,0.92
2022-12-18T20:13:08.070Z,0.76
2022-12-18T20:16:10.858Z,0.80
2022-12-18T20:19:14.327Z,0.73
2022-12-18T20:22:18.148Z,0.70
2022-12-18T20:25:20.859Z,0.60
2022-12-18T20:28:24.323Z,0.82
2022-12-18T20:31:27.052Z,0.78
2022-12-18T20:34:29.352Z,0.76
2022-12-18T20:37:32.236Z,0.50
2022-12-18T20:40:35.342Z,0.76
2022-12-18T20:43:39.060Z,0.49
2022-12-18T20:46:41.712Z,0.52
2022-12-18T20:49:45.546Z,0.59
2022-12-18T20:52:48.645Z,0.69
2022-12-18T20:55:51.177Z,0.66
2022-12-18T20:58:57.637Z,0.41
2022-12-18T21:02:00.405Z,0.49
2022-12-18T21:05:02.862Z,0.64
2022-12-18T21:08:05.642Z,0.40
2022-12-18T21:11:38.924Z,0.63
2022-12-18T21:14:42.143Z,0.62
2022-12-18T21:17:45.373Z,0.66
2022-12-18T21:20:48.025Z,0.54
2022-12-18T21:23:51.173Z,0.34
2022-12-18T21:26:53.999Z,0.52
2022-12-18T21:29:56.428Z,0.51
2022-12-18T21:32:58.941Z,0.47
2022-12-18T21:36:07.126Z,0.50
2022-12-18T21:39:10.302Z,0.23
2022-12-18T21:42:31.514Z,0.46
2022-12-18T21:45:34.258Z,0.39
2022-12-18T21:48:39.056Z,0.27
2022-12-18T21:51:41.683Z,0.44
2022-12-18T21:54:43.983Z,0.23
2022-12-18T21:57:46.508Z,0.22
2022-12-18T22:00:49.804Z,0.42
2022-12-18T22:03:52.450Z,0.38
2022-12-18T22:06:55.177Z,0.11
2022-12-18T22:09:57.874Z,0.08
2022-12-18T22:13:01.550Z,0.23
2022-12-18T22:16:04.087Z,0.26
2022-12-18T22:19:06.857Z,0.20
2022-12-18T22:22:09.394Z,0.01
2022-12-18T22:25:11.765Z,0.12
2022-12-18T22:28:33.263Z,0.11
2022-12-18T22:31:36.021Z,-0.03
2022-12-18T22:34:39.496Z,0.17
2022-12-18T22:37:41.747Z,0.12
2022-12-18T22:40:44.349Z,-0.07
2022-12-18T22:43:46.586Z,0.08
2022-12-18T22:47:02.875Z,0.02
2022-12-18T22:50:12.791Z,0.02
2022-12-18T22:53:15.353Z,-0.05
2022-12-18T22:56:21.077Z,-0.22
2022-12-18T22:59:24.693Z,-0.13
2022-12-18T23:02:27.062Z,-0.41
2022-12-18T23:05:30.953Z,-0.40
2022-12-18T23:08:36.620Z,-1.04
2022-12-18T23:11:39.300Z,-0.19
2022-12-18T23:14:41.555Z,-0.22
2022-12-18T23:17:44.119Z,-0.36
2022-12-18T23:20:46.357Z,-0.15
2022-12-18T23:23:50.610Z,-0.27
2022-12-18T23:26:52.984Z,-0.12
2022-12-18T23:29:55.573Z,-0.37
2022-12-18T23:33:01.072Z,-0.41
2022-12-18T23:36:04.643Z,-0.27
2022-12-18T23:39:07.119Z,-0.44
2022-12-18T23:42:09.674Z,-0.50
2022-12-18T23:45:17.806Z,-0.33
2022-12-18T23:48:21.232Z,-0.55
2022-12-18T23:51:25.654Z,-0.40
2022-12-18T23:54:33.050Z,-0.40
2022-12-18T23:57:38.476Z,-0.35
